createdAt,value
2022-12-08T00:01:49.051Z,-5.90
2022-12-08T00:04:17.819Z,-5.90
2022-12-08T00:07:05.836Z,-6.00
2022-12-08T00:09:39.451Z,-6.00
2022-12-08T00:12:09.781Z,-6.00
2022-12-08T00:14:41.600Z,-6.00
2022-12-08T00:17:12.044Z,-6.00
2022-12-08T00:19:41.258Z,-5.90
2022-12-08T00:22:10.573Z,-5.90
2022-12-08T00:24:40.650Z,-5.90
2022-12-08T00:27:09.697Z,-5.90
2022-12-08T00:29:39.985Z,-5.90
2022-12-08T00:32:08.155Z,-5.90
2022-12-08T00:34:36.417Z,-5.90
2022-12-08T00:37:04.884Z,-5.60
2022-12-08T00:39:33.109Z,-5.50
2022-12-08T00:42:13.413Z,-5.40
2022-12-08T00:44:44.486Z,-5.20
2022-12-08T00:47:13.419Z,-5.10
2022-12-08T00:49:42.337Z,-5.00
2022-12-08T00:52:10.676Z,-5.00
2022-12-08T00:54:38.889Z,-4.90
2022-12-08T00:57:08.628Z,-5.00
2022-12-08T00:59:36.736Z,-5.00
2022-12-08T01:02:06.297Z,-4.90
2022-12-08T01:04:36.549Z,-4.90
2022-12-08T01:07:04.691Z,-4.90
2022-12-08T01:09:33.203Z,-5.00
2022-12-08T01:12:01.445Z,-5.00
2022-12-08T01:14:29.554Z,-5.00
2022-12-08T01:16:58.126Z,-5.00
2022-12-08T01:19:28.001Z,-5.00
2022-12-08T01:21:56.113Z,-5.00
2022-12-08T01:24:24.364Z,-5.10
2022-12-08T01:26:52.929Z,-5.10
2022-12-08T01:29:21.234Z,-5.20
2022-12-08T01:31:49.449Z,-5.20
2022-12-08T01:34:18.043Z,-5.20
2022-12-08T01:36:48.068Z,-5.20
2022-12-08T01:39:18.488Z,-5.30
2022-12-08T01:41:48.503Z,-5.30
2022-12-08T01:44:53.519Z,-5.30
2022-12-08T01:47:23.051Z,-5.30
2022-12-08T01:49:51.133Z,-5.40
2022-12-08T01:52:26.557Z,-5.50
2022-12-08T01:54:59.327Z,-5.40
2022-12-08T01:57:30.654Z,-5.50
2022-12-08T02:00:07.885Z,-5.50
2022-12-08T02:02:41.651Z,-5.50
2022-12-08T02:05:11.253Z,-5.60
2022-12-08T02:07:41.176Z,-5.50
2022-12-08T02:10:11.768Z,-5.60
2022-12-08T02:12:40.153Z,-5.60
2022-12-08T02:15:09.200Z,-5.60
2022-12-08T02:17:51.718Z,-5.50
2022-12-08T02:20:46.836Z,-5.50
2022-12-08T02:23:25.890Z,-5.60
2022-12-08T02:26:18.817Z,-5.70
2022-12-08T02:29:16.941Z,-5.80
2022-12-08T02:31:59.129Z,-5.80
2022-12-08T02:34:35.048Z,-5.70
2022-12-08T02:37:09.833Z,-5.50
2022-12-08T02:39:47.698Z,-5.30
2022-12-08T02:42:25.164Z,-5.20
2022-12-08T02:44:56.681Z,-5.10
2022-12-08T02:47:27.518Z,-5.10
2022-12-08T02:49:58.580Z,-5.00
2022-12-08T02:52:43.140Z,-5.00
2022-12-08T02:55:25.943Z,-4.90
2022-12-08T02:58:06.766Z,-4.90
2022-12-08T03:00:45.389Z,-4.80
2022-12-08T03:03:20.584Z,-4.80
2022-12-08T03:06:01.300Z,-4.80
2022-12-08T03:08:36.877Z,-4.80
2022-12-08T03:11:10.780Z,-4.80
2022-12-08T03:13:42.967Z,-4.90
2022-12-08T03:16:14.386Z,-4.90
2022-12-08T03:18:48.590Z,-4.90
2022-12-08T03:21:21.507Z,-4.90
2022-12-08T03:23:54.695Z,-4.80
2022-12-08T03:26:30.814Z,-4.80
2022-12-08T03:28:59.375Z,-4.80
2022-12-08T03:31:29.899Z,-4.80
2022-12-08T03:34:00.085Z,-4.80
2022-12-08T03:36:30.076Z,-4.80
2022-12-08T03:38:58.176Z,-4.80
2022-12-08T03:41:26.524Z,-4.80
2022-12-08T03:43:57.207Z,-4.70
2022-12-08T03:48:54.484Z,-4.70
2022-12-08T03:51:23.307Z,-4.80
2022-12-08T03:53:52.807Z,-4.80
2022-12-08T03:56:25.305Z,-4.80
2022-12-08T03:58:53.944Z,-4.80
2022-12-08T04:01:22.340Z,-4.80
2022-12-08T04:03:51.134Z,-4.70
2022-12-08T04:06:19.586Z,-4.80
2022-12-08T04:08:48.168Z,-4.80
2022-12-08T04:11:18.258Z,-4.70
2022-12-08T04:13:46.878Z,-4.70
2022-12-08T04:16:18.053Z,-4.70
2022-12-08T04:18:46.832Z,-4.70
2022-12-08T04:21:15.525Z,-4.70
2022-12-08T04:23:44.483Z,-4.60
2022-12-08T04:26:13.066Z,-4.70
2022-12-08T04:28:42.561Z,-4.70
2022-12-08T04:31:11.590Z,-4.80
2022-12-08T04:33:40.259Z,-4.80
2022-12-08T04:36:09.403Z,-4.90
2022-12-08T04:38:37.546Z,-5.00
2022-12-08T04:41:06.058Z,-5.00
2022-12-08T04:43:34.211Z,-5.00
2022-12-08T04:46:06.933Z,-5.10
2022-12-08T04:48:35.440Z,-5.20
2022-12-08T04:51:03.645Z,-5.20
2022-12-08T04:53:31.786Z,-5.30
2022-12-08T04:56:00.187Z,-5.30
2022-12-08T04:58:28.405Z,-5.30
2022-12-08T05:00:56.887Z,-5.40
2022-12-08T05:03:28.697Z,-5.40
2022-12-08T05:05:57.559Z,-5.40
2022-12-08T05:08:25.782Z,-5.50
2022-12-08T05:10:54.349Z,-5.60
2022-12-08T05:13:22.941Z,-5.70
2022-12-08T05:15:52.640Z,-5.80
2022-12-08T05:18:21.264Z,-6.00
2022-12-08T05:20:51.106Z,-6.00
2022-12-08T05:23:19.190Z,-6.00
2022-12-08T05:25:47.688Z,-5.90
2022-12-08T05:28:40.111Z,-5.80
2022-12-08T05:31:04.443Z,-5.80
2022-12-08T05:33:32.601Z,-5.80
2022-12-08T05:36:02.071Z,-5.80
2022-12-08T05:38:30.884Z,-5.70
2022-12-08T05:40:59.114Z,-5.60
2022-12-08T05:43:29.242Z,-5.60
2022-12-08T05:45:57.454Z,-5.50
2022-12-08T05:48:25.968Z,-5.50
2022-12-08T05:50:54.312Z,-5.40
2022-12-08T05:53:24.367Z,-5.30
2022-12-08T05:55:53.376Z,-5.20
2022-12-08T05:58:23.634Z,-5.20
2022-12-08T06:00:52.766Z,-5.30
2022-12-08T06:03:21.482Z,-5.30
2022-12-08T06:05:49.840Z,-5.30
2022-12-08T06:08:18.471Z,-5.30
2022-12-08T06:10:48.592Z,-5.30
2022-12-08T06:13:16.807Z,-5.30
2022-12-08T06:15:45.310Z,-5.30
2022-12-08T06:18:13.526Z,-5.30
2022-12-08T06:20:42.530Z,-5.40
2022-12-08T06:23:11.116Z,-5.40
2022-12-08T06:25:40.079Z,-5.50
2022-12-08T06:28:09.510Z,-5.50
2022-12-08T06:30:39.628Z,-5.40
2022-12-08T06:33:07.908Z,-5.40
2022-12-08T06:35:35.981Z,-5.40
2022-12-08T06:38:04.184Z,-5.40
2022-12-08T06:40:32.846Z,-5.30
2022-12-08T06:43:00.931Z,-5.30
2022-12-08T06:45:30.534Z,-5.20
2022-12-08T06:47:59.612Z,-5.20
2022-12-08T06:50:27.863Z,-5.10
2022-12-08T06:53:04.914Z,-5.10
2022-12-08T06:58:22.944Z,-5.10
2022-12-08T07:00:52.573Z,-5.10
2022-12-08T07:03:20.733Z,-5.10
2022-12-08T07:05:48.982Z,-5.10
2022-12-08T07:08:17.320Z,-5.10
2022-12-08T07:10:45.444Z,-5.20
2022-12-08T07:13:15.308Z,-5.20
2022-12-08T07:15:43.782Z,-5.20
2022-12-08T07:18:13.345Z,-5.20
2022-12-08T07:20:41.637Z,-5.20
2022-12-08T07:23:09.890Z,-5.20
2022-12-08T07:25:37.984Z,-5.20
2022-12-08T07:28:12.848Z,-5.20
2022-12-08T07:30:40.990Z,-5.20
2022-12-08T07:33:09.125Z,-5.20
2022-12-08T07:35:39.120Z,-5.20
2022-12-08T07:38:07.192Z,-5.20
2022-12-08T07:40:35.621Z,-5.20
2022-12-08T07:43:04.318Z,-5.10
2022-12-08T07:45:32.386Z,-5.10
2022-12-08T07:48:00.653Z,-5.10
2022-12-08T07:50:29.030Z,-5.10
2022-12-08T07:52:58.520Z,-5.10
2022-12-08T07:55:26.995Z,-5.10
2022-12-08T07:57:55.850Z,-5.10
2022-12-08T08:00:24.199Z,-5.10
2022-12-08T08:02:52.475Z,-5.10
2022-12-08T08:05:21.385Z,-5.10
2022-12-08T08:07:49.669Z,-5.10
2022-12-08T08:10:19.577Z,-5.20
2022-12-08T08:12:49.081Z,-5.20
2022-12-08T08:15:17.861Z,-5.20
2022-12-08T08:17:46.624Z,-5.30
2022-12-08T08:20:15.917Z,-5.20
2022-12-08T08:22:43.999Z,-5.20
2022-12-08T08:25:12.101Z,-5.20
2022-12-08T08:27:42.087Z,-5.20
2022-12-08T08:30:18.181Z,-5.20
2022-12-08T08:32:48.769Z,-5.20
2022-12-08T08:35:17.456Z,-5.20
2022-12-08T08:37:48.890Z,-5.20
2022-12-08T08:40:20.285Z,-5.10
2022-12-08T08:42:49.729Z,-5.00
2022-12-08T08:45:18.116Z,-5.00
2022-12-08T08:47:46.353Z,-4.90
2022-12-08T08:50:14.628Z,-4.90
2022-12-08T08:52:42.865Z,-4.80
2022-12-08T08:55:11.440Z,-4.80
2022-12-08T08:57:39.506Z,-4.80
2022-12-08T09:00:12.380Z,-4.70
2022-12-08T09:02:40.518Z,-4.70
2022-12-08T09:05:09.779Z,-4.70
2022-12-08T09:07:38.169Z,-4.70
2022-12-08T09:10:07.744Z,-4.60
2022-12-08T09:12:36.622Z,-4.60
2022-12-08T09:15:05.683Z,-4.60
2022-12-08T09:17:35.174Z,-4.60
2022-12-08T09:20:03.740Z,-4.60
2022-12-08T09:22:32.208Z,-4.60
2022-12-08T09:25:00.374Z,-4.60
2022-12-08T09:27:28.445Z,-4.60
2022-12-08T09:29:57.049Z,-4.60
2022-12-08T09:32:25.337Z,-4.70
2022-12-08T09:34:55.298Z,-4.60
2022-12-08T09:37:24.047Z,-4.60
2022-12-08T09:39:52.536Z,-4.60
2022-12-08T09:42:34.316Z,-4.50
2022-12-08T09:45:07.216Z,-4.50
2022-12-08T09:47:43.104Z,-4.60
2022-12-08T09:50:19.468Z,-4.50
2022-12-08T09:52:54.030Z,-4.50
2022-12-08T09:55:26.241Z,-4.50
2022-12-08T09:58:01.888Z,-4.50
2022-12-08T10:00:30.131Z,-4.50
2022-12-08T10:02:59.975Z,-4.50
2022-12-08T10:05:31.639Z,-4.50
2022-12-08T10:08:09.791Z,-4.50
2022-12-08T10:10:43.816Z,-4.50
2022-12-08T10:13:22.971Z,-4.40
2022-12-08T10:16:00.513Z,-4.40
2022-12-08T10:18:30.816Z,-4.30
2022-12-08T10:21:14.969Z,-4.20
2022-12-08T10:23:45.710Z,-4.10
2022-12-08T10:26:17.488Z,-4.10
2022-12-08T10:28:45.899Z,-4.10
2022-12-08T10:31:19.641Z,-4.10
2022-12-08T10:33:50.440Z,-4.10
2022-12-08T10:36:20.729Z,-4.10
2022-12-08T10:38:48.803Z,-4.10
2022-12-08T10:41:18.661Z,-4.10
2022-12-08T10:43:50.967Z,-4.20
2022-12-08T10:46:21.777Z,-4.20
2022-12-08T10:48:54.571Z,-4.20
2022-12-08T10:51:30.753Z,-4.30
2022-12-08T10:53:59.555Z,-4.40
2022-12-08T10:56:30.180Z,-4.40
2022-12-08T10:59:20.229Z,-4.40
2022-12-08T11:01:51.712Z,-4.30
2022-12-08T11:04:22.063Z,-4.20
2022-12-08T11:06:52.912Z,-4.10
2022-12-08T11:09:38.157Z,-4.10
2022-12-08T11:12:14.311Z,-4.10
2022-12-08T11:14:50.971Z,-4.20
2022-12-08T11:17:26.438Z,-4.30
2022-12-08T11:20:00.932Z,-4.30
2022-12-08T11:22:32.674Z,-4.40
2022-12-08T11:25:03.654Z,-4.50
2022-12-08T11:27:34.969Z,-4.50
2022-12-08T11:30:08.436Z,-4.60
2022-12-08T11:32:41.514Z,-4.60
2022-12-08T11:35:19.173Z,-4.70
2022-12-08T11:37:49.306Z,-4.70
2022-12-08T11:40:23.227Z,-4.70
2022-12-08T11:42:59.142Z,-4.70
2022-12-08T11:45:31.433Z,-4.70
2022-12-08T11:48:07.864Z,-4.70
2022-12-08T11:50:43.772Z,-4.70
2022-12-08T11:53:21.987Z,-4.70
2022-12-08T11:55:56.408Z,-4.60
2022-12-08T11:58:27.869Z,-4.60
2022-12-08T12:00:57.790Z,-4.50
2022-12-08T12:03:32.284Z,-4.50
2022-12-08T12:06:46.492Z,-4.50
2022-12-08T12:09:17.662Z,-4.50
2022-12-08T12:12:20.092Z,-4.60
2022-12-08T12:15:01.609Z,-4.60
2022-12-08T12:17:42.703Z,-4.60
2022-12-08T12:20:19.372Z,-4.60
2022-12-08T12:22:52.664Z,-4.60
2022-12-08T12:25:24.956Z,-4.60
2022-12-08T12:27:57.707Z,-4.60
2022-12-08T12:30:29.219Z,-4.70
2022-12-08T12:33:01.768Z,-4.70
2022-12-08T12:35:35.079Z,-4.70
2022-12-08T12:38:28.583Z,-4.70
2022-12-08T12:41:02.891Z,-4.70
2022-12-08T12:43:36.882Z,-4.70
2022-12-08T12:46:42.635Z,-4.70
2022-12-08T12:49:46.780Z,-4.80
2022-12-08T12:52:45.773Z,-4.70
2022-12-08T12:55:49.735Z,-4.70
2022-12-08T12:58:36.777Z,-4.70
2022-12-08T13:01:54.122Z,-4.80
2022-12-08T13:04:36.638Z,-4.90
2022-12-08T13:07:05.921Z,-4.90
2022-12-08T13:09:38.190Z,-4.90
2022-12-08T13:12:12.140Z,-5.00
2022-12-08T13:14:48.648Z,-5.00
2022-12-08T13:17:25.531Z,-5.00
2022-12-08T13:19:57.012Z,-5.10
2022-12-08T13:22:47.458Z,-5.10
2022-12-08T13:25:51.189Z,-5.10
2022-12-08T13:28:23.000Z,-5.10
2022-12-08T13:30:53.181Z,-5.20
2022-12-08T13:33:27.245Z,-5.20
2022-12-08T13:36:13.653Z,-5.20
2022-12-08T13:38:45.220Z,-5.30
2022-12-08T13:41:21.266Z,-5.30
2022-12-08T13:44:50.466Z,-5.40
2022-12-08T13:47:31.540Z,-5.40
2022-12-08T13:58:19.119Z,-5.50
2022-12-08T14:01:01.787Z,-5.50
2022-12-08T14:03:32.099Z,-5.50
2022-12-08T14:06:12.064Z,-5.50
2022-12-08T14:09:02.578Z,-5.50
2022-12-08T14:11:36.079Z,-5.50
2022-12-08T14:14:07.279Z,-5.50
2022-12-08T14:16:39.787Z,-5.40
2022-12-08T14:19:17.823Z,-5.40
2022-12-08T14:21:55.078Z,-5.40
2022-12-08T14:24:24.226Z,-5.40
2022-12-08T14:26:55.511Z,-5.40
2022-12-08T14:29:43.762Z,-5.40
2022-12-08T14:32:22.544Z,-5.40
2022-12-08T14:35:01.544Z,-5.40
2022-12-08T14:37:34.711Z,-5.50
2022-12-08T14:40:07.671Z,-5.50
2022-12-08T14:42:46.721Z,-5.50
2022-12-08T14:45:18.147Z,-5.50
2022-12-08T14:47:46.972Z,-5.50
2022-12-08T14:50:42.148Z,-5.50
2022-12-08T14:53:17.272Z,-5.50
2022-12-08T14:55:49.126Z,-5.50
2022-12-08T14:58:24.031Z,-5.50
2022-12-08T15:00:57.055Z,-5.60
2022-12-08T15:03:26.406Z,-5.60
2022-12-08T15:05:58.883Z,-5.70
2022-12-08T15:08:27.290Z,-5.60
2022-12-08T15:11:18.487Z,-5.60
2022-12-08T15:13:47.658Z,-5.70
2022-12-08T15:16:32.376Z,-5.70
2022-12-08T15:19:23.239Z,-5.70
2022-12-08T15:21:53.176Z,-5.60
2022-12-08T15:24:24.288Z,-5.60
2022-12-08T15:26:53.908Z,-5.60
2022-12-08T15:29:23.807Z,-5.50
2022-12-08T15:31:53.530Z,-5.50
2022-12-08T15:34:22.326Z,-5.50
2022-12-08T15:36:54.194Z,-5.50
2022-12-08T15:39:29.858Z,-5.50
2022-12-08T15:41:58.478Z,-5.50
2022-12-08T15:44:27.210Z,-5.50
2022-12-08T15:46:55.580Z,-5.50
2022-12-08T15:49:25.168Z,-5.40
2022-12-08T15:52:05.026Z,-5.40
2022-12-08T15:54:40.109Z,-5.50
2022-12-08T15:57:20.415Z,-5.50
2022-12-08T15:59:54.876Z,-5.50
2022-12-08T16:02:25.138Z,-5.50
2022-12-08T16:05:33.785Z,-5.50
2022-12-08T16:07:43.656Z,-5.50
2022-12-08T16:10:17.381Z,-5.50
2022-12-08T16:16:00.225Z,-5.50
2022-12-08T16:18:31.842Z,-5.50
2022-12-08T16:21:17.057Z,-5.40
2022-12-08T16:23:49.711Z,-5.40
2022-12-08T16:29:09.625Z,-5.30
2022-12-08T16:31:38.142Z,-5.40
2022-12-08T16:34:06.232Z,-5.30
2022-12-08T16:36:35.201Z,-5.30
2022-12-08T16:39:08.754Z,-5.30
2022-12-08T16:41:54.688Z,-5.30
2022-12-08T16:44:22.786Z,-5.30
2022-12-08T16:46:51.252Z,-5.30
2022-12-08T16:49:19.831Z,-5.40
2022-12-08T16:51:47.956Z,-5.40
2022-12-08T16:54:17.840Z,-5.40
2022-12-08T16:56:45.968Z,-5.30
2022-12-08T16:59:14.147Z,-5.30
2022-12-08T17:01:42.789Z,-5.30
2022-12-08T17:06:59.783Z,-5.20
2022-12-08T17:09:31.200Z,-5.20
2022-12-08T17:12:03.718Z,-5.20
2022-12-08T17:14:35.067Z,-5.10
2022-12-08T17:17:03.286Z,-5.10
2022-12-08T17:19:31.459Z,-5.10
2022-12-08T17:22:00.236Z,-5.10
2022-12-08T17:24:30.297Z,-5.10
2022-12-08T17:27:04.432Z,-5.00
2022-12-08T17:29:32.936Z,-5.10
2022-12-08T17:32:01.235Z,-5.20
2022-12-08T17:34:29.789Z,-5.20
2022-12-08T17:36:57.945Z,-5.20
2022-12-08T17:39:26.922Z,-5.20
2022-12-08T17:41:56.601Z,-5.20
2022-12-08T17:44:24.797Z,-5.10
2022-12-08T17:46:53.490Z,-5.10
2022-12-08T17:49:23.879Z,-5.10
2022-12-08T17:51:53.981Z,-5.10
2022-12-08T17:54:22.423Z,-5.10
2022-12-08T17:56:51.519Z,-5.10
2022-12-08T17:59:21.227Z,-5.20
2022-12-08T18:01:49.706Z,-5.20
2022-12-08T18:04:17.973Z,-5.30
2022-12-08T18:06:46.923Z,-5.30
2022-12-08T18:09:16.044Z,-5.30
2022-12-08T18:11:46.836Z,-5.30
2022-12-08T18:14:16.108Z,-5.30
2022-12-08T18:16:47.673Z,-5.40
2022-12-08T18:19:17.208Z,-5.40
2022-12-08T18:21:45.415Z,-5.50
2022-12-08T18:24:18.951Z,-5.50
2022-12-08T18:26:47.902Z,-5.50
2022-12-08T18:29:15.979Z,-5.50
2022-12-08T18:31:46.005Z,-5.50
2022-12-08T18:34:14.591Z,-5.50
2022-12-08T18:36:42.866Z,-5.50
2022-12-08T18:39:22.215Z,-5.50
2022-12-08T18:41:50.395Z,-5.50
2022-12-08T18:44:19.061Z,-5.50
2022-12-08T18:46:49.132Z,-5.40
2022-12-08T18:49:19.773Z,-5.40
2022-12-08T18:51:48.783Z,-5.40
2022-12-08T18:54:17.052Z,-5.40
2022-12-08T18:56:45.561Z,-5.40
2022-12-08T18:59:14.315Z,-5.50
2022-12-08T19:01:43.169Z,-5.50
2022-12-08T19:04:28.278Z,-5.60
2022-12-08T19:06:58.421Z,-5.60
2022-12-08T19:09:30.491Z,-5.70
2022-12-08T19:11:59.080Z,-5.80
2022-12-08T19:14:28.807Z,-5.90
2022-12-08T19:16:57.372Z,-5.90
2022-12-08T19:19:27.245Z,-6.00
2022-12-08T19:21:55.952Z,-6.00
2022-12-08T19:24:24.152Z,-6.00
2022-12-08T19:26:52.668Z,-6.00
2022-12-08T19:29:21.392Z,-6.00
2022-12-08T19:31:49.625Z,-6.00
2022-12-08T19:34:17.899Z,-6.00
2022-12-08T19:36:49.273Z,-6.00
2022-12-08T19:39:36.851Z,-6.00
2022-12-08T19:42:25.288Z,-5.90
2022-12-08T19:44:56.284Z,-6.00
2022-12-08T19:47:26.110Z,-6.10
2022-12-08T19:50:15.840Z,-6.10
2022-12-08T19:52:46.085Z,-6.20
2022-12-08T19:55:14.503Z,-6.20
2022-12-08T19:57:43.308Z,-6.20
2022-12-08T20:00:13.535Z,-6.20
2022-12-08T20:02:41.678Z,-6.20
2022-12-08T20:05:11.726Z,-6.20
2022-12-08T20:07:40.361Z,-6.30
2022-12-08T20:10:15.854Z,-6.30
2022-12-08T20:12:44.309Z,-6.40
2022-12-08T20:15:12.616Z,-6.40
2022-12-08T20:17:41.259Z,-6.40
2022-12-08T20:20:10.723Z,-6.40
2022-12-08T20:22:39.161Z,-6.40
2022-12-08T20:25:13.004Z,-6.50
2022-12-08T20:27:42.295Z,-6.50
2022-12-08T20:30:16.684Z,-6.50
2022-12-08T20:32:45.736Z,-6.50
2022-12-08T20:35:14.603Z,-6.50
2022-12-08T20:37:42.962Z,-6.50
2022-12-08T20:40:13.085Z,-6.50
2022-12-08T20:42:41.706Z,-6.50
2022-12-08T20:45:10.559Z,-6.50
2022-12-08T20:47:38.794Z,-6.40
2022-12-08T20:50:08.813Z,-6.40
2022-12-08T20:52:38.887Z,-6.30
2022-12-08T20:55:09.052Z,-6.30
2022-12-08T20:57:38.899Z,-6.30
2022-12-08T21:00:09.297Z,-6.30
2022-12-08T21:02:43.232Z,-6.30
2022-12-08T21:05:17.788Z,-6.20
2022-12-08T21:07:46.236Z,-6.20
2022-12-08T21:10:14.740Z,-6.20
2022-12-08T21:12:44.632Z,-6.20
2022-12-08T21:15:13.375Z,-6.20
2022-12-08T21:17:42.542Z,-6.20
2022-12-08T21:20:12.096Z,-6.20
2022-12-08T21:22:41.042Z,-6.10
2022-12-08T21:25:11.966Z,-6.10
2022-12-08T21:27:40.970Z,-6.10
2022-12-08T21:30:12.114Z,-6.10
2022-12-08T21:32:40.779Z,-6.00
2022-12-08T21:35:10.049Z,-6.10
2022-12-08T21:37:38.708Z,-6.10
2022-12-08T21:40:08.701Z,-6.00
2022-12-08T21:42:46.103Z,-5.90
2022-12-08T21:45:17.822Z,-5.90
2022-12-08T21:47:47.944Z,-5.90
2022-12-08T21:50:17.233Z,-5.90
2022-12-08T21:52:47.693Z,-5.90
2022-12-08T21:55:20.400Z,-5.90
2022-12-08T21:57:48.851Z,-5.90
2022-12-08T22:00:20.035Z,-5.90
2022-12-08T22:02:48.320Z,-5.90
2022-12-08T22:05:16.764Z,-5.90
2022-12-08T22:07:45.110Z,-5.90
2022-12-08T22:10:13.456Z,-5.90
2022-12-08T22:12:42.087Z,-5.80
2022-12-08T22:15:12.288Z,-5.90
2022-12-08T22:17:43.452Z,-5.80
2022-12-08T22:20:13.742Z,-5.90
2022-12-08T22:22:42.352Z,-5.90
2022-12-08T22:25:13.236Z,-5.90
2022-12-08T22:27:42.073Z,-5.90
2022-12-08T22:30:12.010Z,-5.90
2022-12-08T22:32:42.598Z,-5.90
2022-12-08T22:35:11.599Z,-5.80
2022-12-08T22:37:39.844Z,-5.70
2022-12-08T22:40:09.911Z,-5.70
2022-12-08T22:42:38.810Z,-5.70
2022-12-08T22:45:08.056Z,-5.70
2022-12-08T22:47:36.741Z,-5.70
2022-12-08T22:50:07.971Z,-5.60
2022-12-08T22:52:36.233Z,-5.50
2022-12-08T22:55:05.594Z,-5.60
2022-12-08T22:57:33.772Z,-5.60
2022-12-08T23:00:02.096Z,-5.70
2022-12-08T23:02:30.460Z,-5.70
2022-12-08T23:04:58.735Z,-5.80
2022-12-08T23:07:28.497Z,-5.80
2022-12-08T23:09:57.473Z,-5.80
2022-12-08T23:12:25.547Z,-5.90
2022-12-08T23:14:53.728Z,-5.90
2022-12-08T23:17:22.123Z,-5.90
2022-12-08T23:19:50.569Z,-6.00
2022-12-08T23:22:18.741Z,-6.00
2022-12-08T23:24:48.549Z,-5.90
2022-12-08T23:27:16.684Z,-5.90
2022-12-08T23:29:44.886Z,-5.90
2022-12-08T23:32:13.722Z,-5.80
2022-12-08T23:34:41.934Z,-5.80
2022-12-08T23:37:10.227Z,-5.80
2022-12-08T23:39:39.196Z,-5.80
2022-12-08T23:42:08.823Z,-5.80
2022-12-08T23:44:37.163Z,-5.80
2022-12-08T23:47:05.690Z,-5.80
2022-12-08T23:49:34.643Z,-5.80
2022-12-08T23:52:04.386Z,-5.70
2022-12-08T23:54:32.985Z,-5.70
2022-12-08T23:57:01.157Z,-5.70
2022-12-08T23:59:32.153Z,-5.70
